Montreal, Quebec

9:22 PM EDT on August 20, 2014 (GMT -0400)
Montreal | Change Station
CLOSE
Current Station
Airport
Location: Montreal,
Elevation: 118 ft
Nearby Weather Stations

Elev 118 ft 45.47 °N, 73.74 °W | Updated 22 minutes ago

Mostly Cloudy
Mostly Cloudy
73 °F
Feels Like 73 °F
N
9
Wind Variable Wind from NE

Tomorrow is forecast to be nearly the same temperature as today.

Today
High -- | Low -- °F
--% Chance of Precip.
Yesterday
High -- | Low -- °F
Precip. -- in
6:01 AM 7:54 PM
Waning Crescent, 18% visible
Pressure 29.99 in
Visibility 15.0 miles
Clouds Mostly Cloudy 24000 ft
Dew Point 59 °F
Humidity 61%
Rainfall 0.00 in
Snow Depth Not available.
UV 0 out of 12
Pollen Not available.
Air Quality Not available.
Flu Activity Not available.
METAR CYUL 210100Z 05008KT 15SM BKN240 23/15 A2999 RMK CI7 SLP154 DENSITY ALT 900FT

More Conditions Fewer Conditions

Pressure 29.99 in
Visibility 15.0 miles
Clouds Mostly Cloudy 24000 ft
Dew Point 59 °F
Humidity 61%
Rainfall 0.00 in
Snow Depth Not available.
UV 0 out of 12
Pollen Not available.
Air Quality Not available.
Flu Activity Not available.
METAR CYUL 210100Z 05008KT 15SM BKN240 23/15 A2999 RMK CI7 SLP154 DENSITY ALT 900FT

More Conditions Fewer Conditions

10-Day Weather Forecast

Almanac

Astronomy

Aug. 20, 2014 Rise Set
Actual Time 6:01 AM EDT 7:54 PM EDT
Civil Twilight 5:30 AM EDT 8:25 PM EDT
Nautical Twilight 4:51 AM EDT 9:04 PM EDT
Astronomical Twilight 4:08 AM EDT 9:46 PM EDT
Moon 1:34 AM EDT (8/20) 4:42 PM EDT (8/20)
Length of Visible Light 14h 55m
Length of Day
13h 52m
Tomorrow will be 2m 56s shorter.
Waning Crescent, 18% of the Moon is Illuminated
Today
Waning Crescent
Aug 25
New
Sep 2
First Quarter
Sep 8
Full
Sep 15
Last Quarter

Today's Extremes

Country Highs Country Lows

Community

WunderPhotos

Upload Photos

1,745,840 photos uploaded!

WunderBlogs® & News

Nearby

Snow Depth

Not available.

Earthquake Activity

City Distance Mag. Time & Date
No recent earthquake activity has been reported nearby.
Minimum magnitude displayed is 2.5.

Coastal Water Temperatures

Place Temperature
No Stations Reporting

Nearby Weather Stations